Mobile, AL (36608)

6:11 PM CDT on August 31, 2015 (GMT -0500)
Huntleigh Woods | | Change Station
CLOSE
Current Station
Personal Weather Station
Location: Mobile, AL
Elevation: 226 ft
Nearby Weather Stations

Elev 226 ft 30.68 °N, 88.20 °W | Updated 2 seconds ago

Scattered Clouds
Scattered Clouds
90.8 °F
Feels Like 99 °F
N
1.0
Wind Variable Wind from NW
Gusts 2.0 mph

Today
High -- | Low -- °F
--% Chance of Precip.
Yesterday
High -- | Low -- °F
Precip. -- in
6:28 AM 7:17 PM
Waning Gibbous, 93% visible
Pressure 30.01 in
Visibility 10.0 miles
Clouds Few 6000 ft
Scattered Clouds 20000 ft
Heat Index 99 °F
Dew Point 73 °F
Humidity 56%
Rainfall 0.00 in
Snow Depth Not available.
UV 1 out of 12
Pollen 8.40 out of 12
Air Quality Not available.
Flu Activity Not available.
METAR KMOB 312256Z 20008KT 10SM FEW060 SCT200 32/21 A3002 RMK AO2 SLP161 T03170206
Pressure 30.01 in
Visibility 10.0 miles
Clouds Few 6000 ft
Scattered Clouds 20000 ft
Heat Index 99 °F
Dew Point 73 °F
Humidity 56%
Rainfall 0.00 in
Snow Depth Not available.
UV 1 out of 12
Pollen 8.40 out of 12
Air Quality Not available.
Flu Activity Not available.
METAR KMOB 312256Z 20008KT 10SM FEW060 SCT200 32/21 A3002 RMK AO2 SLP161 T03170206

10-Day Weather Forecast

×

Almanac

Astronomy

Aug. 31, 2015 Rise Set
Actual Time
Civil Twilight
Nautical Twilight
Astronomical Twilight
Moon
Length of Visible Light
Length of Day
Tomorrow will be .
, % of the Moon is Illuminated

Today's Extremes

State Highs State Lows

Community

WunderPhotos

Upload Photos

1,851,390 photos uploaded!

WunderBlogs® & News

Nearby

Air Quality

  Air Quality AQ Index Pollutant
Not available.

Snow Depth

Station Depth Elevation

Earthquake Activity

City Distance Mag. Time & Date
Minimum magnitude displayed is 2.5.

Coastal Water Temperatures

Place Temperature

Stations

Nearby Weather Stations

Station Location Temp. Windchill Dew Point Humidity Wind Precip. Elev Updated Type